sensor_id;sensor_type;location;lat;lon;timestamp;P1;durP1;ratioP1;P2;durP2;ratioP2
3177;SDS011;38141;42.666;23.344;2024-01-30T00:02:02;10.77;;;6.37;;
3177;SDS011;38141;42.666;23.344;2024-01-30T00:04:29;8.73;;;5.63;;
3177;SDS011;38141;42.666;23.344;2024-01-30T00:06:56;8.50;;;5.63;;
3177;SDS011;38141;42.666;23.344;2024-01-30T00:09:23;11.07;;;7.00;;
3177;SDS011;38141;42.666;23.344;2024-01-30T00:11:51;12.50;;;7.33;;
3177;SDS011;38141;42.666;23.344;2024-01-30T00:14:18;10.50;;;6.20;;
3177;SDS011;38141;42.666;23.344;2024-01-30T00:16:45;14.40;;;8.00;;
3177;SDS011;38141;42.666;23.344;2024-01-30T00:19:13;9.23;;;6.13;;
3177;SDS011;38141;42.666;23.344;2024-01-30T00:21:40;12.40;;;5.97;;
3177;SDS011;38141;42.666;23.344;2024-01-30T00:24:07;9.63;;;5.90;;
3177;SDS011;38141;42.666;23.344;2024-01-30T00:26:34;12.00;;;6.03;;
3177;SDS011;38141;42.666;23.344;2024-01-30T00:29:01;8.97;;;5.63;;
3177;SDS011;38141;42.666;23.344;2024-01-30T00:31:28;8.57;;;6.03;;
3177;SDS011;38141;42.666;23.344;2024-01-30T00:33:55;11.93;;;6.30;;
3177;SDS011;38141;42.666;23.344;2024-01-30T00:36:23;11.30;;;6.27;;
3177;SDS011;38141;42.666;23.344;2024-01-30T00:38:50;8.60;;;5.30;;
3177;SDS011;38141;42.666;23.344;2024-01-30T00:41:17;10.83;;;6.00;;
3177;SDS011;38141;42.666;23.344;2024-01-30T00:43:45;8.87;;;5.93;;
3177;SDS011;38141;42.666;23.344;2024-01-30T00:46:12;9.90;;;6.00;;
3177;SDS011;38141;42.666;23.344;2024-01-30T00:48:39;13.20;;;6.60;;
3177;SDS011;38141;42.666;23.344;2024-01-30T00:51:06;8.27;;;5.80;;
3177;SDS011;38141;42.666;23.344;2024-01-30T00:53:34;10.80;;;6.37;;
3177;SDS011;38141;42.666;23.344;2024-01-30T00:56:01;10.37;;;5.73;;
3177;SDS011;38141;42.666;23.344;2024-01-30T00:58:28;10.83;;;6.50;;
3177;SDS011;38141;42.666;23.344;2024-01-30T01:00:55;10.17;;;5.87;;
3177;SDS011;38141;42.666;23.344;2024-01-30T01:03:22;9.70;;;5.70;;
3177;SDS011;38141;42.666;23.344;2024-01-30T01:05:49;8.67;;;5.73;;
3177;SDS011;38141;42.666;23.344;2024-01-30T01:08:16;9.30;;;5.83;;
3177;SDS011;38141;42.666;23.344;2024-01-30T01:10:45;10.47;;;6.13;;
3177;SDS011;38141;42.666;23.344;2024-01-30T01:13:12;11.03;;;6.30;;
3177;SDS011;38141;42.666;23.344;2024-01-30T01:15:39;12.90;;;5.80;;
3177;SDS011;38141;42.666;23.344;2024-01-30T01:18:06;9.20;;;5.50;;
3177;SDS011;38141;42.666;23.344;2024-01-30T01:20:33;8.80;;;5.70;;
3177;SDS011;38141;42.666;23.344;2024-01-30T01:23:00;9.00;;;6.13;;
3177;SDS011;38141;42.666;23.344;2024-01-30T01:25:27;12.33;;;6.00;;
3177;SDS011;38141;42.666;23.344;2024-01-30T01:27:55;9.80;;;5.90;;
3177;SDS011;38141;42.666;23.344;2024-01-30T01:30:22;10.27;;;6.03;;
3177;SDS011;38141;42.666;23.344;2024-01-30T01:32:51;10.07;;;6.07;;
3177;SDS011;38141;42.666;23.344;2024-01-30T01:35:20;12.70;;;5.40;;
3177;SDS011;38141;42.666;23.344;2024-01-30T01:37:49;9.47;;;5.47;;
3177;SDS011;38141;42.666;23.344;2024-01-30T01:40:20;12.00;;;6.37;;
3177;SDS011;38141;42.666;23.344;2024-01-30T01:42:49;7.30;;;5.07;;
3177;SDS011;38141;42.666;23.344;2024-01-30T01:45:17;8.47;;;5.43;;
3177;SDS011;38141;42.666;23.344;2024-01-30T01:47:45;9.83;;;5.47;;
3177;SDS011;38141;42.666;23.344;2024-01-30T01:50:15;8.50;;;5.30;;
3177;SDS011;38141;42.666;23.344;2024-01-30T01:52:44;10.43;;;5.03;;
3177;SDS011;38141;42.666;23.344;2024-01-30T01:55:12;9.00;;;5.73;;
3177;SDS011;38141;42.666;23.344;2024-01-30T01:57:41;7.57;;;5.83;;
3177;SDS011;38141;42.666;23.344;2024-01-30T02:00:08;11.10;;;6.27;;
3177;SDS011;38141;42.666;23.344;2024-01-30T02:02:37;9.90;;;5.73;;
3177;SDS011;38141;42.666;23.344;2024-01-30T02:05:06;9.47;;;5.50;;
3177;SDS011;38141;42.666;23.344;2024-01-30T02:07:34;10.77;;;6.10;;
3177;SDS011;38141;42.666;23.344;2024-01-30T02:10:01;10.97;;;5.47;;
3177;SDS011;38141;42.666;23.344;2024-01-30T02:12:29;7.20;;;5.13;;
3177;SDS011;38141;42.666;23.344;2024-01-30T02:14:56;9.73;;;5.70;;
3177;SDS011;38141;42.666;23.344;2024-01-30T02:17:23;7.97;;;5.23;;
3177;SDS011;38141;42.666;23.344;2024-01-30T02:19:51;9.97;;;5.60;;
3177;SDS011;38141;42.666;23.344;2024-01-30T02:22:20;7.70;;;5.40;;
3177;SDS011;38141;42.666;23.344;2024-01-30T02:24:47;8.57;;;5.10;;
3177;SDS011;38141;42.666;23.344;2024-01-30T02:27:13;8.37;;;5.43;;
3177;SDS011;38141;42.666;23.344;2024-01-30T02:29:40;10.53;;;5.50;;
3177;SDS011;38141;42.666;23.344;2024-01-30T02:32:07;9.57;;;5.23;;
3177;SDS011;38141;42.666;23.344;2024-01-30T02:34:34;8.83;;;5.27;;
3177;SDS011;38141;42.666;23.344;2024-01-30T02:37:01;8.87;;;5.23;;
3177;SDS011;38141;42.666;23.344;2024-01-30T02:39:30;8.77;;;5.10;;
3177;SDS011;38141;42.666;23.344;2024-01-30T02:41:57;9.10;;;5.30;;
3177;SDS011;38141;42.666;23.344;2024-01-30T02:44:24;9.23;;;5.10;;
3177;SDS011;38141;42.666;23.344;2024-01-30T02:46:50;9.43;;;5.27;;
3177;SDS011;38141;42.666;23.344;2024-01-30T02:49:19;10.40;;;5.87;;
3177;SDS011;38141;42.666;23.344;2024-01-30T02:51:46;9.13;;;5.87;;
3177;SDS011;38141;42.666;23.344;2024-01-30T02:54:13;8.83;;;4.80;;
3177;SDS011;38141;42.666;23.344;2024-01-30T02:56:41;8.07;;;5.57;;
3177;SDS011;38141;42.666;23.344;2024-01-30T02:59:08;7.67;;;5.03;;
3177;SDS011;38141;42.666;23.344;2024-01-30T03:01:42;9.13;;;5.20;;
3177;SDS011;38141;42.666;23.344;2024-01-30T03:04:09;7.83;;;4.93;;
3177;SDS011;38141;42.666;23.344;2024-01-30T03:06:36;8.10;;;5.60;;
3177;SDS011;38141;42.666;23.344;2024-01-30T03:09:03;8.60;;;5.03;;
3177;SDS011;38141;42.666;23.344;2024-01-30T03:11:30;9.97;;;5.40;;
3177;SDS011;38141;42.666;23.344;2024-01-30T03:13:59;10.70;;;5.57;;
3177;SDS011;38141;42.666;23.344;2024-01-30T03:16:26;7.47;;;4.87;;
3177;SDS011;38141;42.666;23.344;2024-01-30T03:18:53;8.23;;;5.77;;
3177;SDS011;38141;42.666;23.344;2024-01-30T03:21:20;10.10;;;5.80;;
3177;SDS011;38141;42.666;23.344;2024-01-30T03:23:46;8.30;;;4.90;;
3177;SDS011;38141;42.666;23.344;2024-01-30T03:26:13;7.37;;;4.70;;
3177;SDS011;38141;42.666;23.344;2024-01-30T03:28:41;8.57;;;4.70;;
3177;SDS011;38141;42.666;23.344;2024-01-30T03:31:09;8.80;;;5.37;;
3177;SDS011;38141;42.666;23.344;2024-01-30T03:33:36;9.00;;;4.80;;
3177;SDS011;38141;42.666;23.344;2024-01-30T03:36:04;6.83;;;4.30;;
3177;SDS011;38141;42.666;23.344;2024-01-30T03:38:32;8.27;;;4.90;;
3177;SDS011;38141;42.666;23.344;2024-01-30T03:40:59;8.33;;;4.33;;
3177;SDS011;38141;42.666;23.344;2024-01-30T03:43:26;6.70;;;4.40;;
3177;SDS011;38141;42.666;23.344;2024-01-30T03:45:53;9.93;;;5.80;;
3177;SDS011;38141;42.666;23.344;2024-01-30T03:48:22;6.57;;;4.53;;
3177;SDS011;38141;42.666;23.344;2024-01-30T03:50:51;7.83;;;5.00;;
3177;SDS011;38141;42.666;23.344;2024-01-30T03:53:17;8.53;;;5.40;;
3177;SDS011;38141;42.666;23.344;2024-01-30T03:55:44;6.50;;;3.97;;
3177;SDS011;38141;42.666;23.344;2024-01-30T03:58:11;8.67;;;5.10;;
3177;SDS011;38141;42.666;23.344;2024-01-30T04:00:39;7.73;;;4.60;;
3177;SDS011;38141;42.666;23.344;2024-01-30T04:03:06;7.57;;;4.60;;
3177;SDS011;38141;42.666;23.344;2024-01-30T04:05:34;8.57;;;5.10;;
3177;SDS011;38141;42.666;23.344;2024-01-30T04:08:01;7.43;;;4.63;;
3177;SDS011;38141;42.666;23.344;2024-01-30T04:10:29;7.30;;;4.53;;
3177;SDS011;38141;42.666;23.344;2024-01-30T04:12:55;8.80;;;4.27;;
3177;SDS011;38141;42.666;23.344;2024-01-30T04:15:22;7.23;;;4.70;;
3177;SDS011;38141;42.666;23.344;2024-01-30T04:17:49;9.60;;;4.93;;
3177;SDS011;38141;42.666;23.344;2024-01-30T04:20:16;9.13;;;4.90;;
3177;SDS011;38141;42.666;23.344;2024-01-30T04:22:45;8.53;;;5.00;;
3177;SDS011;38141;42.666;23.344;2024-01-30T04:25:13;8.10;;;5.27;;
3177;SDS011;38141;42.666;23.344;2024-01-30T04:27:40;8.23;;;5.70;;
3177;SDS011;38141;42.666;23.344;2024-01-30T04:30:07;9.30;;;4.77;;
3177;SDS011;38141;42.666;23.344;2024-01-30T04:32:35;8.47;;;4.80;;
3177;SDS011;38141;42.666;23.344;2024-01-30T04:35:02;8.70;;;4.70;;
3177;SDS011;38141;42.666;23.344;2024-01-30T04:37:30;9.20;;;5.43;;
3177;SDS011;38141;42.666;23.344;2024-01-30T04:39:59;9.50;;;4.83;;
3177;SDS011;38141;42.666;23.344;2024-01-30T04:42:26;11.33;;;5.40;;
3177;SDS011;38141;42.666;23.344;2024-01-30T04:44:53;10.27;;;4.60;;
3177;SDS011;38141;42.666;23.344;2024-01-30T04:47:20;6.57;;;4.30;;
3177;SDS011;38141;42.666;23.344;2024-01-30T04:49:47;8.07;;;4.63;;
3177;SDS011;38141;42.666;23.344;2024-01-30T04:52:13;8.40;;;4.43;;
3177;SDS011;38141;42.666;23.344;2024-01-30T04:54:40;7.43;;;4.93;;
3177;SDS011;38141;42.666;23.344;2024-01-30T04:57:09;7.70;;;4.73;;
3177;SDS011;38141;42.666;23.344;2024-01-30T04:59:37;13.50;;;5.13;;
3177;SDS011;38141;42.666;23.344;2024-01-30T05:02:04;6.53;;;3.93;;
3177;SDS011;38141;42.666;23.344;2024-01-30T05:04:32;8.17;;;4.40;;
3177;SDS011;38141;42.666;23.344;2024-01-30T05:06:59;7.73;;;4.47;;
3177;SDS011;38141;42.666;23.344;2024-01-30T05:09:26;7.20;;;4.90;;
3177;SDS011;38141;42.666;23.344;2024-01-30T05:11:53;7.63;;;4.50;;
3177;SDS011;38141;42.666;23.344;2024-01-30T05:14:21;5.53;;;3.90;;
3177;SDS011;38141;42.666;23.344;2024-01-30T05:16:48;7.47;;;4.33;;
3177;SDS011;38141;42.666;23.344;2024-01-30T05:19:16;7.83;;;4.50;;
3177;SDS011;38141;42.666;23.344;2024-01-30T05:21:44;5.83;;;3.57;;
3177;SDS011;38141;42.666;23.344;2024-01-30T05:24:11;7.20;;;4.30;;
3177;SDS011;38141;42.666;23.344;2024-01-30T05:26:38;6.73;;;4.20;;
3177;SDS011;38141;42.666;23.344;2024-01-30T05:29:05;7.07;;;4.13;;
3177;SDS011;38141;42.666;23.344;2024-01-30T05:31:34;10.00;;;4.70;;
3177;SDS011;38141;42.666;23.344;2024-01-30T05:34:01;12.83;;;5.57;;
3177;SDS011;38141;42.666;23.344;2024-01-30T05:36:29;11.37;;;4.67;;
3177;SDS011;38141;42.666;23.344;2024-01-30T05:38:56;20.37;;;7.17;;
3177;SDS011;38141;42.666;23.344;2024-01-30T05:41:23;19.50;;;7.00;;
3177;SDS011;38141;42.666;23.344;2024-01-30T05:43:50;18.50;;;7.13;;
3177;SDS011;38141;42.666;23.344;2024-01-30T05:46:17;13.87;;;8.07;;
3177;SDS011;38141;42.666;23.344;2024-01-30T05:48:45;19.57;;;5.90;;
3177;SDS011;38141;42.666;23.344;2024-01-30T05:51:12;14.77;;;7.00;;
3177;SDS011;38141;42.666;23.344;2024-01-30T05:53:40;22.67;;;8.27;;
3177;SDS011;38141;42.666;23.344;2024-01-30T05:56:07;17.73;;;7.13;;
3177;SDS011;38141;42.666;23.344;2024-01-30T05:58:34;30.43;;;10.87;;
3177;SDS011;38141;42.666;23.344;2024-01-30T06:01:02;26.40;;;11.37;;
3177;SDS011;38141;42.666;23.344;2024-01-30T06:03:29;17.13;;;7.00;;
3177;SDS011;38141;42.666;23.344;2024-01-30T06:05:58;14.67;;;6.90;;
3177;SDS011;38141;42.666;23.344;2024-01-30T06:08:25;13.10;;;6.80;;
3177;SDS011;38141;42.666;23.344;2024-01-30T06:10:52;21.20;;;9.10;;
3177;SDS011;38141;42.666;23.344;2024-01-30T06:13:19;30.60;;;11.20;;
3177;SDS011;38141;42.666;23.344;2024-01-30T06:15:48;23.40;;;11.00;;
3177;SDS011;38141;42.666;23.344;2024-01-30T06:18:15;17.67;;;8.73;;
3177;SDS011;38141;42.666;23.344;2024-01-30T06:20:42;17.03;;;8.90;;
3177;SDS011;38141;42.666;23.344;2024-01-30T06:23:10;20.23;;;7.93;;
3177;SDS011;38141;42.666;23.344;2024-01-30T06:25:38;11.83;;;7.10;;
3177;SDS011;38141;42.666;23.344;2024-01-30T06:28:05;9.57;;;6.47;;
3177;SDS011;38141;42.666;23.344;2024-01-30T06:30:32;14.87;;;7.37;;
3177;SDS011;38141;42.666;23.344;2024-01-30T06:32:59;18.83;;;8.87;;
3177;SDS011;38141;42.666;23.344;2024-01-30T06:35:26;38.43;;;8.53;;
3177;SDS011;38141;42.666;23.344;2024-01-30T06:37:54;16.50;;;7.33;;
3177;SDS011;38141;42.666;23.344;2024-01-30T06:40:22;16.47;;;7.10;;
3177;SDS011;38141;42.666;23.344;2024-01-30T06:42:49;18.30;;;6.80;;
3177;SDS011;38141;42.666;23.344;2024-01-30T06:45:16;16.93;;;8.00;;
3177;SDS011;38141;42.666;23.344;2024-01-30T06:47:43;16.20;;;7.00;;
3177;SDS011;38141;42.666;23.344;2024-01-30T06:50:10;17.27;;;8.33;;
3177;SDS011;38141;42.666;23.344;2024-01-30T06:52:37;24.40;;;8.70;;
3177;SDS011;38141;42.666;23.344;2024-01-30T06:55:04;37.60;;;9.77;;
3177;SDS011;38141;42.666;23.344;2024-01-30T06:57:33;24.47;;;8.30;;
3177;SDS011;38141;42.666;23.344;2024-01-30T07:00:00;16.30;;;6.90;;
3177;SDS011;38141;42.666;23.344;2024-01-30T07:02:27;11.20;;;5.93;;
3177;SDS011;38141;42.666;23.344;2024-01-30T07:04:57;9.80;;;6.30;;
3177;SDS011;38141;42.666;23.344;2024-01-30T07:07:24;10.20;;;6.30;;
3177;SDS011;38141;42.666;23.344;2024-01-30T07:09:51;10.07;;;5.57;;
3177;SDS011;38141;42.666;23.344;2024-01-30T07:12:21;8.27;;;5.10;;
3177;SDS011;38141;42.666;23.344;2024-01-30T07:14:53;10.57;;;4.70;;
3177;SDS011;38141;42.666;23.344;2024-01-30T07:17:21;10.80;;;5.87;;
3177;SDS011;38141;42.666;23.344;2024-01-30T07:19:48;9.23;;;5.40;;
3177;SDS011;38141;42.666;23.344;2024-01-30T07:22:15;9.90;;;5.67;;
3177;SDS011;38141;42.666;23.344;2024-01-30T07:24:42;12.37;;;5.80;;
3177;SDS011;38141;42.666;23.344;2024-01-30T07:27:13;7.10;;;4.30;;
3177;SDS011;38141;42.666;23.344;2024-01-30T07:29:42;6.30;;;3.80;;
3177;SDS011;38141;42.666;23.344;2024-01-30T07:32:11;9.20;;;4.17;;
3177;SDS011;38141;42.666;23.344;2024-01-30T07:34:38;4.73;;;3.70;;
3177;SDS011;38141;42.666;23.344;2024-01-30T07:37:05;21.77;;;11.70;;
3177;SDS011;38141;42.666;23.344;2024-01-30T07:39:33;10.00;;;6.13;;
3177;SDS011;38141;42.666;23.344;2024-01-30T07:42:01;10.70;;;5.50;;
3177;SDS011;38141;42.666;23.344;2024-01-30T07:44:28;6.17;;;3.70;;
3177;SDS011;38141;42.666;23.344;2024-01-30T07:46:55;5.17;;;3.40;;
3177;SDS011;38141;42.666;23.344;2024-01-30T07:49:23;4.47;;;3.60;;
3177;SDS011;38141;42.666;23.344;2024-01-30T07:51:50;4.63;;;3.60;;
3177;SDS011;38141;42.666;23.344;2024-01-30T07:54:17;7.33;;;3.70;;
3177;SDS011;38141;42.666;23.344;2024-01-30T07:56:44;4.17;;;3.47;;
3177;SDS011;38141;42.666;23.344;2024-01-30T07:59:11;3.17;;;2.73;;
3177;SDS011;38141;42.666;23.344;2024-01-30T08:01:38;3.67;;;3.07;;
3177;SDS011;38141;42.666;23.344;2024-01-30T08:04:05;5.30;;;3.63;;
3177;SDS011;38141;42.666;23.344;2024-01-30T08:06:34;3.97;;;3.20;;
3177;SDS011;38141;42.666;23.344;2024-01-30T08:09:01;5.47;;;3.80;;
3177;SDS011;38141;42.666;23.344;2024-01-30T08:11:28;4.90;;;3.80;;
3177;SDS011;38141;42.666;23.344;2024-01-30T08:13:56;5.67;;;3.67;;
3177;SDS011;38141;42.666;23.344;2024-01-30T08:16:23;6.70;;;3.60;;
3177;SDS011;38141;42.666;23.344;2024-01-30T08:18:49;7.13;;;4.00;;
3177;SDS011;38141;42.666;23.344;2024-01-30T08:21:18;10.57;;;4.10;;
3177;SDS011;38141;42.666;23.344;2024-01-30T08:23:46;8.60;;;5.07;;
3177;SDS011;38141;42.666;23.344;2024-01-30T08:26:13;6.07;;;3.73;;
3177;SDS011;38141;42.666;23.344;2024-01-30T08:28:40;6.07;;;3.70;;
3177;SDS011;38141;42.666;23.344;2024-01-30T08:31:09;4.20;;;3.60;;
3177;SDS011;38141;42.666;23.344;2024-01-30T08:33:36;6.60;;;4.90;;
3177;SDS011;38141;42.666;23.344;2024-01-30T08:36:03;5.33;;;4.03;;
3177;SDS011;38141;42.666;23.344;2024-01-30T08:38:31;4.67;;;3.40;;
3177;SDS011;38141;42.666;23.344;2024-01-30T08:40:59;6.93;;;4.30;;
3177;SDS011;38141;42.666;23.344;2024-01-30T08:43:26;9.20;;;4.13;;
3177;SDS011;38141;42.666;23.344;2024-01-30T08:45:53;7.47;;;4.27;;
3177;SDS011;38141;42.666;23.344;2024-01-30T08:48:20;8.33;;;5.10;;
3177;SDS011;38141;42.666;23.344;2024-01-30T08:50:47;8.20;;;5.10;;
3177;SDS011;38141;42.666;23.344;2024-01-30T08:53:14;8.93;;;4.37;;
3177;SDS011;38141;42.666;23.344;2024-01-30T08:55:41;6.57;;;5.30;;
3177;SDS011;38141;42.666;23.344;2024-01-30T08:58:10;4.63;;;4.10;;
3177;SDS011;38141;42.666;23.344;2024-01-30T09:00:37;7.17;;;4.07;;
3177;SDS011;38141;42.666;23.344;2024-01-30T09:03:04;6.13;;;4.73;;
3177;SDS011;38141;42.666;23.344;2024-01-30T09:05:31;6.83;;;4.93;;
3177;SDS011;38141;42.666;23.344;2024-01-30T09:07:58;6.67;;;5.53;;
3177;SDS011;38141;42.666;23.344;2024-01-30T09:10:25;11.10;;;5.30;;
3177;SDS011;38141;42.666;23.344;2024-01-30T09:12:52;8.90;;;5.80;;
3177;SDS011;38141;42.666;23.344;2024-01-30T09:15:20;6.70;;;5.55;;
3177;SDS011;38141;42.666;23.344;2024-01-30T09:17:48;11.90;;;5.88;;
3177;SDS011;38141;42.666;23.344;2024-01-30T09:20:15;9.67;;;5.50;;
3177;SDS011;38141;42.666;23.344;2024-01-30T09:22:42;9.40;;;6.30;;
3177;SDS011;38141;42.666;23.344;2024-01-30T09:25:09;10.30;;;5.97;;
3177;SDS011;38141;42.666;23.344;2024-01-30T09:27:37;11.03;;;6.53;;
3177;SDS011;38141;42.666;23.344;2024-01-30T09:30:04;12.03;;;8.63;;
3177;SDS011;38141;42.666;23.344;2024-01-30T09:32:34;10.90;;;7.73;;
3177;SDS011;38141;42.666;23.344;2024-01-30T09:35:00;8.57;;;6.37;;
3177;SDS011;38141;42.666;23.344;2024-01-30T09:37:27;47.20;;;28.73;;
3177;SDS011;38141;42.666;23.344;2024-01-30T09:39:54;18.03;;;11.73;;
3177;SDS011;38141;42.666;23.344;2024-01-30T09:42:25;13.40;;;9.20;;
3177;SDS011;38141;42.666;23.344;2024-01-30T09:44:59;21.20;;;12.43;;
3177;SDS011;38141;42.666;23.344;2024-01-30T09:47:26;25.93;;;8.07;;
3177;SDS011;38141;42.666;23.344;2024-01-30T09:49:54;19.43;;;5.30;;
3177;SDS011;38141;42.666;23.344;2024-01-30T09:52:22;16.20;;;10.20;;
3177;SDS011;38141;42.666;23.344;2024-01-30T09:54:49;23.70;;;13.80;;
3177;SDS011;38141;42.666;23.344;2024-01-30T09:57:18;17.00;;;10.47;;
3177;SDS011;38141;42.666;23.344;2024-01-30T09:59:46;16.87;;;7.63;;
3177;SDS011;38141;42.666;23.344;2024-01-30T10:02:13;11.87;;;6.90;;
3177;SDS011;38141;42.666;23.344;2024-01-30T10:04:40;8.10;;;5.80;;
3177;SDS011;38141;42.666;23.344;2024-01-30T10:07:09;6.87;;;4.93;;
3177;SDS011;38141;42.666;23.344;2024-01-30T10:09:37;8.47;;;5.03;;
3177;SDS011;38141;42.666;23.344;2024-01-30T10:12:05;6.37;;;5.00;;
3177;SDS011;38141;42.666;23.344;2024-01-30T10:14:33;7.47;;;4.67;;
3177;SDS011;38141;42.666;23.344;2024-01-30T10:17:00;8.57;;;5.03;;
3177;SDS011;38141;42.666;23.344;2024-01-30T10:19:28;6.73;;;4.60;;
3177;SDS011;38141;42.666;23.344;2024-01-30T10:21:55;16.80;;;5.60;;
3177;SDS011;38141;42.666;23.344;2024-01-30T10:24:25;7.23;;;4.30;;
3177;SDS011;38141;42.666;23.344;2024-01-30T10:26:54;7.63;;;4.47;;
3177;SDS011;38141;42.666;23.344;2024-01-30T10:29:22;10.10;;;4.60;;
3177;SDS011;38141;42.666;23.344;2024-01-30T10:31:57;6.87;;;4.40;;
3177;SDS011;38141;42.666;23.344;2024-01-30T10:34:25;9.03;;;5.10;;
3177;SDS011;38141;42.666;23.344;2024-01-30T10:36:54;7.90;;;4.60;;
3177;SDS011;38141;42.666;23.344;2024-01-30T10:39:29;6.83;;;4.63;;
3177;SDS011;38141;42.666;23.344;2024-01-30T10:41:59;5.50;;;4.00;;
3177;SDS011;38141;42.666;23.344;2024-01-30T10:44:34;9.30;;;5.20;;
3177;SDS011;38141;42.666;23.344;2024-01-30T10:47:06;8.43;;;5.07;;
3177;SDS011;38141;42.666;23.344;2024-01-30T10:49:38;9.57;;;5.70;;
3177;SDS011;38141;42.666;23.344;2024-01-30T10:52:07;8.87;;;5.50;;
3177;SDS011;38141;42.666;23.344;2024-01-30T10:54:37;10.17;;;5.20;;
3177;SDS011;38141;42.666;23.344;2024-01-30T10:57:04;10.40;;;4.63;;
3177;SDS011;38141;42.666;23.344;2024-01-30T10:59:32;7.03;;;4.97;;
3177;SDS011;38141;42.666;23.344;2024-01-30T11:01:59;6.80;;;4.37;;
3177;SDS011;38141;42.666;23.344;2024-01-30T11:04:27;8.87;;;4.97;;
3177;SDS011;38141;42.666;23.344;2024-01-30T11:07:02;5.73;;;4.63;;
3177;SDS011;38141;42.666;23.344;2024-01-30T11:09:31;7.90;;;4.70;;
3177;SDS011;38141;42.666;23.344;2024-01-30T11:12:04;6.40;;;4.00;;
3177;SDS011;38141;42.666;23.344;2024-01-30T11:14:32;6.77;;;4.73;;
3177;SDS011;38141;42.666;23.344;2024-01-30T11:16:59;5.80;;;4.13;;
3177;SDS011;38141;42.666;23.344;2024-01-30T11:19:30;9.87;;;4.33;;
3177;SDS011;38141;42.666;23.344;2024-01-30T11:21:58;7.03;;;4.07;;
3177;SDS011;38141;42.666;23.344;2024-01-30T11:24:27;7.00;;;4.27;;
3177;SDS011;38141;42.666;23.344;2024-01-30T11:26:58;7.60;;;4.20;;
3177;SDS011;38141;42.666;23.344;2024-01-30T11:29:25;5.43;;;3.90;;
3177;SDS011;38141;42.666;23.344;2024-01-30T11:31:54;5.63;;;3.93;;
3177;SDS011;38141;42.666;23.344;2024-01-30T11:34:22;8.07;;;4.40;;
3177;SDS011;38141;42.666;23.344;2024-01-30T11:36:51;7.70;;;5.40;;
3177;SDS011;38141;42.666;23.344;2024-01-30T11:39:24;7.87;;;5.03;;
3177;SDS011;38141;42.666;23.344;2024-01-30T11:41:52;6.87;;;4.97;;
3177;SDS011;38141;42.666;23.344;2024-01-30T11:44:21;5.03;;;3.73;;
3177;SDS011;38141;42.666;23.344;2024-01-30T11:46:48;6.83;;;3.97;;
3177;SDS011;38141;42.666;23.344;2024-01-30T11:49:17;8.70;;;5.00;;
3177;SDS011;38141;42.666;23.344;2024-01-30T11:51:45;7.00;;;4.17;;
3177;SDS011;38141;42.666;23.344;2024-01-30T11:54:13;6.57;;;4.47;;
3177;SDS011;38141;42.666;23.344;2024-01-30T11:56:41;4.93;;;3.60;;
3177;SDS011;38141;42.666;23.344;2024-01-30T11:59:08;5.80;;;3.67;;
3177;SDS011;38141;42.666;23.344;2024-01-30T12:01:37;7.90;;;4.17;;
3177;SDS011;38141;42.666;23.344;2024-01-30T12:04:04;9.47;;;5.13;;
3177;SDS011;38141;42.666;23.344;2024-01-30T12:06:34;12.63;;;4.70;;
3177;SDS011;38141;42.666;23.344;2024-01-30T12:09:02;12.03;;;5.80;;
3177;SDS011;38141;42.666;23.344;2024-01-30T12:11:30;15.00;;;11.50;;
3177;SDS011;38141;42.666;23.344;2024-01-30T12:13:58;12.27;;;6.40;;
3177;SDS011;38141;42.666;23.344;2024-01-30T12:16:25;12.57;;;6.13;;
3177;SDS011;38141;42.666;23.344;2024-01-30T12:19:00;8.53;;;4.90;;
3177;SDS011;38141;42.666;23.344;2024-01-30T12:21:28;7.90;;;5.10;;
3177;SDS011;38141;42.666;23.344;2024-01-30T12:23:56;10.20;;;5.03;;
3177;SDS011;38141;42.666;23.344;2024-01-30T12:26:23;6.67;;;4.10;;
3177;SDS011;38141;42.666;23.344;2024-01-30T12:28:54;7.67;;;4.80;;
3177;SDS011;38141;42.666;23.344;2024-01-30T12:31:26;8.30;;;4.77;;
3177;SDS011;38141;42.666;23.344;2024-01-30T12:33:53;9.33;;;5.80;;
3177;SDS011;38141;42.666;23.344;2024-01-30T12:36:22;6.90;;;4.37;;
3177;SDS011;38141;42.666;23.344;2024-01-30T12:38:49;6.67;;;4.40;;
3177;SDS011;38141;42.666;23.344;2024-01-30T12:41:16;8.10;;;5.83;;
3177;SDS011;38141;42.666;23.344;2024-01-30T12:43:44;8.50;;;5.60;;
3177;SDS011;38141;42.666;23.344;2024-01-30T12:46:12;8.83;;;5.70;;
3177;SDS011;38141;42.666;23.344;2024-01-30T12:48:39;7.00;;;4.57;;
3177;SDS011;38141;42.666;23.344;2024-01-30T12:51:06;9.13;;;5.60;;
3177;SDS011;38141;42.666;23.344;2024-01-30T12:53:35;9.67;;;4.87;;
3177;SDS011;38141;42.666;23.344;2024-01-30T12:56:02;11.00;;;4.90;;
3177;SDS011;38141;42.666;23.344;2024-01-30T12:58:30;8.03;;;5.07;;
3177;SDS011;38141;42.666;23.344;2024-01-30T13:00:57;8.87;;;5.80;;
3177;SDS011;38141;42.666;23.344;2024-01-30T13:03:24;6.30;;;4.57;;
3177;SDS011;38141;42.666;23.344;2024-01-30T13:05:51;9.83;;;5.77;;
3177;SDS011;38141;42.666;23.344;2024-01-30T13:08:18;12.73;;;5.17;;
3177;SDS011;38141;42.666;23.344;2024-01-30T13:10:46;8.63;;;4.20;;
3177;SDS011;38141;42.666;23.344;2024-01-30T13:13:13;8.60;;;4.93;;
3177;SDS011;38141;42.666;23.344;2024-01-30T13:15:40;8.40;;;4.93;;
3177;SDS011;38141;42.666;23.344;2024-01-30T13:18:07;7.80;;;5.17;;
3177;SDS011;38141;42.666;23.344;2024-01-30T13:20:35;10.30;;;5.50;;
3177;SDS011;38141;42.666;23.344;2024-01-30T13:23:02;9.60;;;6.40;;
3177;SDS011;38141;42.666;23.344;2024-01-30T13:25:29;8.80;;;5.60;;
3177;SDS011;38141;42.666;23.344;2024-01-30T13:27:58;7.10;;;5.17;;
3177;SDS011;38141;42.666;23.344;2024-01-30T13:30:25;7.23;;;4.93;;
3177;SDS011;38141;42.666;23.344;2024-01-30T13:32:52;8.30;;;5.30;;
3177;SDS011;38141;42.666;23.344;2024-01-30T13:35:19;9.93;;;4.77;;
3177;SDS011;38141;42.666;23.344;2024-01-30T13:37:46;15.23;;;8.30;;
3177;SDS011;38141;42.666;23.344;2024-01-30T13:40:13;10.73;;;5.70;;
3177;SDS011;38141;42.666;23.344;2024-01-30T13:42:41;13.30;;;7.27;;
3177;SDS011;38141;42.666;23.344;2024-01-30T13:45:10;8.17;;;5.40;;
3177;SDS011;38141;42.666;23.344;2024-01-30T13:47:37;11.33;;;6.40;;
3177;SDS011;38141;42.666;23.344;2024-01-30T13:50:04;10.47;;;6.07;;
3177;SDS011;38141;42.666;23.344;2024-01-30T13:52:33;10.30;;;6.03;;
3177;SDS011;38141;42.666;23.344;2024-01-30T13:55:00;7.37;;;5.27;;
3177;SDS011;38141;42.666;23.344;2024-01-30T13:57:27;9.60;;;5.90;;
3177;SDS011;38141;42.666;23.344;2024-01-30T13:59:54;15.00;;;8.70;;
3177;SDS011;38141;42.666;23.344;2024-01-30T14:02:23;17.40;;;7.10;;
3177;SDS011;38141;42.666;23.344;2024-01-30T14:04:50;10.70;;;6.90;;
3177;SDS011;38141;42.666;23.344;2024-01-30T14:07:17;9.23;;;6.00;;
3177;SDS011;38141;42.666;23.344;2024-01-30T14:09:44;9.63;;;6.07;;
3177;SDS011;38141;42.666;23.344;2024-01-30T14:12:11;9.40;;;5.40;;
3177;SDS011;38141;42.666;23.344;2024-01-30T14:14:38;10.70;;;6.87;;
3177;SDS011;38141;42.666;23.344;2024-01-30T14:17:06;11.63;;;6.80;;
3177;SDS011;38141;42.666;23.344;2024-01-30T14:19:34;17.43;;;7.00;;
3177;SDS011;38141;42.666;23.344;2024-01-30T14:22:02;10.33;;;5.80;;
3177;SDS011;38141;42.666;23.344;2024-01-30T14:24:29;10.90;;;6.80;;
3177;SDS011;38141;42.666;23.344;2024-01-30T14:26:56;9.67;;;5.80;;
3177;SDS011;38141;42.666;23.344;2024-01-30T14:29:23;9.77;;;6.20;;
3177;SDS011;38141;42.666;23.344;2024-01-30T14:31:49;10.03;;;6.10;;
3177;SDS011;38141;42.666;23.344;2024-01-30T14:34:16;13.80;;;7.00;;
3177;SDS011;38141;42.666;23.344;2024-01-30T14:36:45;13.30;;;7.07;;
3177;SDS011;38141;42.666;23.344;2024-01-30T14:39:12;11.10;;;6.43;;
3177;SDS011;38141;42.666;23.344;2024-01-30T14:41:40;14.07;;;7.30;;
3177;SDS011;38141;42.666;23.344;2024-01-30T14:44:07;10.90;;;6.37;;
3177;SDS011;38141;42.666;23.344;2024-01-30T14:46:34;13.50;;;7.00;;